sensor_id;sensor_type;location;lat;lon;timestamp;P1;durP1;ratioP1;P2;durP2;ratioP2
79346;SDS011;68815;48.810;44.482;2023-12-28T00:02:46;2.7;;;1;;
79346;SDS011;68815;48.810;44.482;2023-12-28T00:05:48;2.2;;;0.8;;
79346;SDS011;68815;48.810;44.482;2023-12-28T00:08:50;2.5;;;0.9;;
79346;SDS011;68815;48.810;44.482;2023-12-28T00:11:52;3.2;;;1;;
79346;SDS011;68815;48.810;44.482;2023-12-28T00:14:54;2.6;;;0.9;;
79346;SDS011;68815;48.810;44.482;2023-12-28T00:18:01;2.4;;;0.9;;
79346;SDS011;68815;48.810;44.482;2023-12-28T00:21:03;2.3;;;0.8;;
79346;SDS011;68815;48.810;44.482;2023-12-28T00:24:06;2.6;;;0.8;;
79346;SDS011;68815;48.810;44.482;2023-12-28T00:27:08;2.3;;;0.8;;
79346;SDS011;68815;48.810;44.482;2023-12-28T00:30:10;2.8;;;0.8;;
79346;SDS011;68815;48.810;44.482;2023-12-28T00:33:12;2.1;;;0.9;;
79346;SDS011;68815;48.810;44.482;2023-12-28T00:36:14;2.3;;;1;;
79346;SDS011;68815;48.810;44.482;2023-12-28T00:39:16;2.7;;;0.9;;
79346;SDS011;68815;48.810;44.482;2023-12-28T00:42:18;2.3;;;0.8;;
79346;SDS011;68815;48.810;44.482;2023-12-28T00:45:20;2.3;;;0.9;;
79346;SDS011;68815;48.810;44.482;2023-12-28T00:48:21;2.2;;;0.8;;
79346;SDS011;68815;48.810;44.482;2023-12-28T00:51:23;2.2;;;0.8;;
79346;SDS011;68815;48.810;44.482;2023-12-28T00:54:25;2.2;;;0.8;;
79346;SDS011;68815;48.810;44.482;2023-12-28T00:57:27;2.7;;;1;;
79346;SDS011;68815;48.810;44.482;2023-12-28T01:00:28;2.9;;;0.8;;
79346;SDS011;68815;48.810;44.482;2023-12-28T01:03:30;2.6;;;0.7;;
79346;SDS011;68815;48.810;44.482;2023-12-28T01:06:32;2.1;;;0.7;;
79346;SDS011;68815;48.810;44.482;2023-12-28T01:09:34;2.1;;;0.9;;
79346;SDS011;68815;48.810;44.482;2023-12-28T01:12:36;2.4;;;0.8;;
79346;SDS011;68815;48.810;44.482;2023-12-28T01:15:38;2.6;;;0.8;;
79346;SDS011;68815;48.810;44.482;2023-12-28T01:18:40;2.2;;;0.8;;
79346;SDS011;68815;48.810;44.482;2023-12-28T01:21:42;2.4;;;0.9;;
79346;SDS011;68815;48.810;44.482;2023-12-28T01:24:46;2.2;;;0.7;;
79346;SDS011;68815;48.810;44.482;2023-12-28T01:27:47;2.1;;;0.7;;
79346;SDS011;68815;48.810;44.482;2023-12-28T01:30:49;2.2;;;0.7;;
79346;SDS011;68815;48.810;44.482;2023-12-28T01:33:51;2.2;;;0.8;;
79346;SDS011;68815;48.810;44.482;2023-12-28T01:36:53;3.9;;;1;;
79346;SDS011;68815;48.810;44.482;2023-12-28T01:39:55;2.6;;;1.1;;
79346;SDS011;68815;48.810;44.482;2023-12-28T01:42:57;2.5;;;0.9;;
79346;SDS011;68815;48.810;44.482;2023-12-28T01:45:59;3.3;;;1.1;;
79346;SDS011;68815;48.810;44.482;2023-12-28T01:49:01;2.8;;;1.1;;
79346;SDS011;68815;48.810;44.482;2023-12-28T01:52:06;2.8;;;1.1;;
79346;SDS011;68815;48.810;44.482;2023-12-28T01:55:08;2.8;;;1.2;;
79346;SDS011;68815;48.810;44.482;2023-12-28T01:58:10;2.5;;;1;;
79346;SDS011;68815;48.810;44.482;2023-12-28T02:01:12;2.4;;;1;;
79346;SDS011;68815;48.810;44.482;2023-12-28T02:04:14;3.9;;;1.2;;
79346;SDS011;68815;48.810;44.482;2023-12-28T02:07:16;3.1;;;1.3;;
79346;SDS011;68815;48.810;44.482;2023-12-28T02:10:20;3;;;1.1;;
79346;SDS011;68815;48.810;44.482;2023-12-28T02:13:22;2.8;;;1.2;;
79346;SDS011;68815;48.810;44.482;2023-12-28T02:16:26;2.9;;;1.2;;
79346;SDS011;68815;48.810;44.482;2023-12-28T02:19:39;2.6;;;1;;
79346;SDS011;68815;48.810;44.482;2023-12-28T02:22:45;2.9;;;1.2;;
79346;SDS011;68815;48.810;44.482;2023-12-28T02:25:48;2.6;;;1.1;;
79346;SDS011;68815;48.810;44.482;2023-12-28T02:28:50;3.2;;;1.2;;
79346;SDS011;68815;48.810;44.482;2023-12-28T02:31:53;2.8;;;0.9;;
79346;SDS011;68815;48.810;44.482;2023-12-28T02:35:04;3;;;0.9;;
79346;SDS011;68815;48.810;44.482;2023-12-28T02:38:12;2.6;;;1;;
79346;SDS011;68815;48.810;44.482;2023-12-28T02:41:16;3.3;;;1.1;;
79346;SDS011;68815;48.810;44.482;2023-12-28T02:44:18;2.9;;;1.1;;
79346;SDS011;68815;48.810;44.482;2023-12-28T02:47:20;3.8;;;1;;
79346;SDS011;68815;48.810;44.482;2023-12-28T02:50:22;3.2;;;1.2;;
79346;SDS011;68815;48.810;44.482;2023-12-28T02:53:24;3.2;;;1.1;;
79346;SDS011;68815;48.810;44.482;2023-12-28T02:56:26;3.5;;;1.2;;
79346;SDS011;68815;48.810;44.482;2023-12-28T02:59:27;3.1;;;1.2;;
79346;SDS011;68815;48.810;44.482;2023-12-28T03:02:29;3.2;;;1.3;;
79346;SDS011;68815;48.810;44.482;2023-12-28T03:05:31;3.2;;;1.3;;
79346;SDS011;68815;48.810;44.482;2023-12-28T03:08:33;3.8;;;1.4;;
79346;SDS011;68815;48.810;44.482;2023-12-28T03:11:35;3.2;;;1.2;;
79346;SDS011;68815;48.810;44.482;2023-12-28T03:14:37;3.4;;;1.4;;
79346;SDS011;68815;48.810;44.482;2023-12-28T03:17:39;4;;;1.4;;
79346;SDS011;68815;48.810;44.482;2023-12-28T03:20:41;3.8;;;1.6;;
79346;SDS011;68815;48.810;44.482;2023-12-28T03:23:43;6.1;;;1.8;;
79346;SDS011;68815;48.810;44.482;2023-12-28T03:26:45;4;;;1.6;;
79346;SDS011;68815;48.810;44.482;2023-12-28T03:29:47;4.3;;;1.8;;
79346;SDS011;68815;48.810;44.482;2023-12-28T03:32:49;3.7;;;1.5;;
79346;SDS011;68815;48.810;44.482;2023-12-28T03:35:51;4.1;;;1.5;;
79346;SDS011;68815;48.810;44.482;2023-12-28T03:38:53;3.5;;;1.6;;
79346;SDS011;68815;48.810;44.482;2023-12-28T03:41:55;3.7;;;1.4;;
79346;SDS011;68815;48.810;44.482;2023-12-28T03:44:57;4.4;;;1.6;;
79346;SDS011;68815;48.810;44.482;2023-12-28T03:47:59;3.2;;;1.5;;
79346;SDS011;68815;48.810;44.482;2023-12-28T03:51:00;2.8;;;1.2;;
79346;SDS011;68815;48.810;44.482;2023-12-28T03:54:02;2.6;;;1;;
79346;SDS011;68815;48.810;44.482;2023-12-28T03:57:04;2.6;;;1.1;;
79346;SDS011;68815;48.810;44.482;2023-12-28T04:00:07;3.1;;;1.4;;
79346;SDS011;68815;48.810;44.482;2023-12-28T04:03:14;2.7;;;1.1;;
79346;SDS011;68815;48.810;44.482;2023-12-28T04:06:16;2.8;;;1;;
79346;SDS011;68815;48.810;44.482;2023-12-28T04:09:18;3;;;1;;
79346;SDS011;68815;48.810;44.482;2023-12-28T04:12:20;3.6;;;1;;
79346;SDS011;68815;48.810;44.482;2023-12-28T04:15:22;2.8;;;1.1;;
79346;SDS011;68815;48.810;44.482;2023-12-28T04:18:23;3;;;1.2;;
79346;SDS011;68815;48.810;44.482;2023-12-28T04:21:25;2.9;;;1.1;;
79346;SDS011;68815;48.810;44.482;2023-12-28T04:24:27;3;;;1.1;;
79346;SDS011;68815;48.810;44.482;2023-12-28T04:27:29;3.6;;;1.1;;
79346;SDS011;68815;48.810;44.482;2023-12-28T04:30:31;2.7;;;0.9;;
79346;SDS011;68815;48.810;44.482;2023-12-28T04:33:32;2.7;;;1.1;;
79346;SDS011;68815;48.810;44.482;2023-12-28T04:36:39;2.6;;;1;;
79346;SDS011;68815;48.810;44.482;2023-12-28T04:39:42;3.1;;;1.1;;
79346;SDS011;68815;48.810;44.482;2023-12-28T04:42:44;2.6;;;0.9;;
79346;SDS011;68815;48.810;44.482;2023-12-28T04:45:47;2.8;;;1;;
79346;SDS011;68815;48.810;44.482;2023-12-28T04:48:48;2.9;;;0.9;;
79346;SDS011;68815;48.810;44.482;2023-12-28T04:51:50;2.6;;;1;;
79346;SDS011;68815;48.810;44.482;2023-12-28T04:54:52;2.7;;;1;;
79346;SDS011;68815;48.810;44.482;2023-12-28T04:57:54;4.5;;;1.1;;
79346;SDS011;68815;48.810;44.482;2023-12-28T05:00:56;2.3;;;0.9;;
79346;SDS011;68815;48.810;44.482;2023-12-28T05:03:57;3.8;;;1.1;;
79346;SDS011;68815;48.810;44.482;2023-12-28T05:07:00;2.7;;;1;;
79346;SDS011;68815;48.810;44.482;2023-12-28T05:10:02;3.5;;;1.1;;
79346;SDS011;68815;48.810;44.482;2023-12-28T05:13:05;2.8;;;1;;
79346;SDS011;68815;48.810;44.482;2023-12-28T05:16:07;2.4;;;0.9;;
79346;SDS011;68815;48.810;44.482;2023-12-28T05:19:09;2.4;;;0.9;;
79346;SDS011;68815;48.810;44.482;2023-12-28T05:22:10;2.6;;;0.9;;
79346;SDS011;68815;48.810;44.482;2023-12-28T05:25:12;2.7;;;1;;
79346;SDS011;68815;48.810;44.482;2023-12-28T05:28:14;2.7;;;1;;
79346;SDS011;68815;48.810;44.482;2023-12-28T05:31:16;3.2;;;1.1;;
79346;SDS011;68815;48.810;44.482;2023-12-28T05:34:18;2.3;;;0.8;;
79346;SDS011;68815;48.810;44.482;2023-12-28T05:37:20;2.9;;;1;;
79346;SDS011;68815;48.810;44.482;2023-12-28T05:40:23;2.8;;;0.9;;
79346;SDS011;68815;48.810;44.482;2023-12-28T05:43:24;2.8;;;0.9;;
79346;SDS011;68815;48.810;44.482;2023-12-28T05:46:26;4.9;;;1;;
79346;SDS011;68815;48.810;44.482;2023-12-28T05:49:28;2.6;;;1;;
79346;SDS011;68815;48.810;44.482;2023-12-28T05:52:30;2.5;;;0.9;;
79346;SDS011;68815;48.810;44.482;2023-12-28T05:55:32;2.6;;;1;;
79346;SDS011;68815;48.810;44.482;2023-12-28T05:58:34;3.9;;;1.2;;
79346;SDS011;68815;48.810;44.482;2023-12-28T06:01:42;3.3;;;1.1;;
79346;SDS011;68815;48.810;44.482;2023-12-28T06:04:45;2.8;;;1;;
79346;SDS011;68815;48.810;44.482;2023-12-28T06:07:47;2.7;;;1.2;;
79346;SDS011;68815;48.810;44.482;2023-12-28T06:10:49;3.9;;;1.2;;
79346;SDS011;68815;48.810;44.482;2023-12-28T06:13:51;2.6;;;1;;
79346;SDS011;68815;48.810;44.482;2023-12-28T06:16:54;3.3;;;1.1;;
79346;SDS011;68815;48.810;44.482;2023-12-28T06:19:56;2.8;;;1.3;;
79346;SDS011;68815;48.810;44.482;2023-12-28T06:22:59;2.9;;;1.1;;
79346;SDS011;68815;48.810;44.482;2023-12-28T06:26:04;3.1;;;1.2;;
79346;SDS011;68815;48.810;44.482;2023-12-28T06:29:06;3.4;;;1.4;;
79346;SDS011;68815;48.810;44.482;2023-12-28T06:32:08;3.4;;;1.2;;
79346;SDS011;68815;48.810;44.482;2023-12-28T06:35:10;3.3;;;1.4;;
79346;SDS011;68815;48.810;44.482;2023-12-28T06:38:11;3.3;;;1.5;;
79346;SDS011;68815;48.810;44.482;2023-12-28T06:41:13;4;;;1.6;;
79346;SDS011;68815;48.810;44.482;2023-12-28T06:44:15;3.2;;;1.3;;
79346;SDS011;68815;48.810;44.482;2023-12-28T06:47:17;3.4;;;1.3;;
79346;SDS011;68815;48.810;44.482;2023-12-28T06:50:19;3.4;;;1.4;;
79346;SDS011;68815;48.810;44.482;2023-12-28T06:53:21;3.5;;;1.4;;
79346;SDS011;68815;48.810;44.482;2023-12-28T06:56:23;3.3;;;1.5;;
79346;SDS011;68815;48.810;44.482;2023-12-28T06:59:25;4;;;1.6;;
79346;SDS011;68815;48.810;44.482;2023-12-28T07:02:26;4.6;;;2;;
79346;SDS011;68815;48.810;44.482;2023-12-28T07:05:29;5.7;;;2.2;;
79346;SDS011;68815;48.810;44.482;2023-12-28T07:08:31;6.2;;;2.6;;
79346;SDS011;68815;48.810;44.482;2023-12-28T07:11:33;4.9;;;2.4;;
79346;SDS011;68815;48.810;44.482;2023-12-28T07:14:35;3.5;;;1.4;;
79346;SDS011;68815;48.810;44.482;2023-12-28T07:17:37;4.7;;;2;;
79346;SDS011;68815;48.810;44.482;2023-12-28T07:20:39;6;;;2.4;;
79346;SDS011;68815;48.810;44.482;2023-12-28T07:23:40;5.4;;;2.3;;
79346;SDS011;68815;48.810;44.482;2023-12-28T07:26:42;5.9;;;2.4;;
79346;SDS011;68815;48.810;44.482;2023-12-28T07:29:44;6.8;;;2.2;;
79346;SDS011;68815;48.810;44.482;2023-12-28T07:32:46;6.5;;;2.5;;
79346;SDS011;68815;48.810;44.482;2023-12-28T07:35:47;5.3;;;2.2;;
79346;SDS011;68815;48.810;44.482;2023-12-28T07:38:50;4.9;;;1.9;;
79346;SDS011;68815;48.810;44.482;2023-12-28T07:41:52;4.2;;;2;;
79346;SDS011;68815;48.810;44.482;2023-12-28T07:44:54;4.2;;;1.6;;
79346;SDS011;68815;48.810;44.482;2023-12-28T07:47:56;4.5;;;1.8;;
79346;SDS011;68815;48.810;44.482;2023-12-28T07:50:58;3.8;;;1.7;;
79346;SDS011;68815;48.810;44.482;2023-12-28T07:54:00;4.1;;;1.7;;
79346;SDS011;68815;48.810;44.482;2023-12-28T07:57:01;4.3;;;1.4;;
79346;SDS011;68815;48.810;44.482;2023-12-28T08:00:04;3.8;;;1.7;;
79346;SDS011;68815;48.810;44.482;2023-12-28T08:03:07;4.6;;;1.7;;
79346;SDS011;68815;48.810;44.482;2023-12-28T08:06:09;4.4;;;1.3;;
79346;SDS011;68815;48.810;44.482;2023-12-28T08:09:11;3.8;;;1.3;;
79346;SDS011;68815;48.810;44.482;2023-12-28T08:12:13;3.4;;;1.3;;
79346;SDS011;68815;48.810;44.482;2023-12-28T08:15:15;3.3;;;1.2;;
79346;SDS011;68815;48.810;44.482;2023-12-28T08:18:17;3.5;;;1.3;;
79346;SDS011;68815;48.810;44.482;2023-12-28T08:21:18;3.1;;;1.2;;
79346;SDS011;68815;48.810;44.482;2023-12-28T08:24:20;3.8;;;1.4;;
79346;SDS011;68815;48.810;44.482;2023-12-28T08:27:22;2.9;;;1.1;;
79346;SDS011;68815;48.810;44.482;2023-12-28T08:30:24;3;;;1.1;;
79346;SDS011;68815;48.810;44.482;2023-12-28T08:33:26;2.7;;;1;;
79346;SDS011;68815;48.810;44.482;2023-12-28T08:36:28;2.6;;;1;;
79346;SDS011;68815;48.810;44.482;2023-12-28T08:39:30;2.8;;;1;;
79346;SDS011;68815;48.810;44.482;2023-12-28T08:42:32;3.2;;;1.2;;
79346;SDS011;68815;48.810;44.482;2023-12-28T08:45:34;3.9;;;1.4;;
79346;SDS011;68815;48.810;44.482;2023-12-28T08:48:35;3.8;;;1.6;;
79346;SDS011;68815;48.810;44.482;2023-12-28T08:51:37;4.5;;;1.7;;
79346;SDS011;68815;48.810;44.482;2023-12-28T08:54:40;5.8;;;2;;
79346;SDS011;68815;48.810;44.482;2023-12-28T08:57:42;5.7;;;2.3;;
79346;SDS011;68815;48.810;44.482;2023-12-28T09:00:44;8;;;3;;
79346;SDS011;68815;48.810;44.482;2023-12-28T09:03:47;7.2;;;3;;
79346;SDS011;68815;48.810;44.482;2023-12-28T09:06:49;8;;;3.6;;
79346;SDS011;68815;48.810;44.482;2023-12-28T09:09:51;9.3;;;3.7;;
79346;SDS011;68815;48.810;44.482;2023-12-28T09:12:53;7.2;;;3.4;;
79346;SDS011;68815;48.810;44.482;2023-12-28T09:15:55;8.1;;;3.6;;
79346;SDS011;68815;48.810;44.482;2023-12-28T09:18:57;7;;;3.4;;
79346;SDS011;68815;48.810;44.482;2023-12-28T09:21:59;8.3;;;3.7;;
79346;SDS011;68815;48.810;44.482;2023-12-28T09:25:01;8.6;;;3.5;;
79346;SDS011;68815;48.810;44.482;2023-12-28T09:28:06;8.2;;;3.8;;
79346;SDS011;68815;48.810;44.482;2023-12-28T09:31:08;7.1;;;2.9;;
79346;SDS011;68815;48.810;44.482;2023-12-28T09:34:09;7.3;;;3.3;;
79346;SDS011;68815;48.810;44.482;2023-12-28T09:37:11;6.6;;;2.6;;
79346;SDS011;68815;48.810;44.482;2023-12-28T09:40:13;7.2;;;3;;
79346;SDS011;68815;48.810;44.482;2023-12-28T09:43:17;6.3;;;2.5;;
79346;SDS011;68815;48.810;44.482;2023-12-28T09:46:24;6.7;;;2.7;;
79346;SDS011;68815;48.810;44.482;2023-12-28T09:49:26;5.3;;;2.5;;
79346;SDS011;68815;48.810;44.482;2023-12-28T09:52:29;5.7;;;2.2;;
79346;SDS011;68815;48.810;44.482;2023-12-28T09:55:31;5;;;2.3;;
79346;SDS011;68815;48.810;44.482;2023-12-28T09:58:33;4.5;;;1.9;;
79346;SDS011;68815;48.810;44.482;2023-12-28T10:01:36;4.2;;;1.8;;
79346;SDS011;68815;48.810;44.482;2023-12-28T10:04:38;5;;;1.9;;
79346;SDS011;68815;48.810;44.482;2023-12-28T10:07:42;3.7;;;1.6;;
79346;SDS011;68815;48.810;44.482;2023-12-28T10:10:45;4.5;;;1.7;;
79346;SDS011;68815;48.810;44.482;2023-12-28T10:13:48;3.5;;;1.4;;
79346;SDS011;68815;48.810;44.482;2023-12-28T10:16:50;3.5;;;1.3;;
79346;SDS011;68815;48.810;44.482;2023-12-28T10:19:52;3.7;;;1.6;;
79346;SDS011;68815;48.810;44.482;2023-12-28T10:22:54;3.5;;;1.4;;
79346;SDS011;68815;48.810;44.482;2023-12-28T10:25:56;3.1;;;1.2;;
79346;SDS011;68815;48.810;44.482;2023-12-28T10:28:59;3.2;;;1.2;;
79346;SDS011;68815;48.810;44.482;2023-12-28T10:32:01;3.2;;;1.1;;
79346;SDS011;68815;48.810;44.482;2023-12-28T10:35:03;2.9;;;1.2;;
79346;SDS011;68815;48.810;44.482;2023-12-28T10:38:05;3.2;;;1;;
79346;SDS011;68815;48.810;44.482;2023-12-28T10:41:09;3;;;1;;
79346;SDS011;68815;48.810;44.482;2023-12-28T10:44:12;3;;;1.1;;
79346;SDS011;68815;48.810;44.482;2023-12-28T10:47:21;2.4;;;0.7;;
79346;SDS011;68815;48.810;44.482;2023-12-28T10:50:28;3;;;1;;
79346;SDS011;68815;48.810;44.482;2023-12-28T10:53:38;2.6;;;0.9;;
79346;SDS011;68815;48.810;44.482;2023-12-28T10:56:48;3.1;;;1.1;;
79346;SDS011;68815;48.810;44.482;2023-12-28T11:00:00;2.6;;;1;;
79346;SDS011;68815;48.810;44.482;2023-12-28T11:03:08;2.5;;;0.9;;
79346;SDS011;68815;48.810;44.482;2023-12-28T11:06:12;3.8;;;1.1;;
79346;SDS011;68815;48.810;44.482;2023-12-28T11:09:17;2.8;;;0.8;;
79346;SDS011;68815;48.810;44.482;2023-12-28T11:12:22;2.8;;;0.9;;
79346;SDS011;68815;48.810;44.482;2023-12-28T11:15:25;2.3;;;0.9;;
79346;SDS011;68815;48.810;44.482;2023-12-28T11:18:28;2.9;;;1;;
79346;SDS011;68815;48.810;44.482;2023-12-28T11:21:30;3;;;1;;
79346;SDS011;68815;48.810;44.482;2023-12-28T11:24:33;2.5;;;1;;
79346;SDS011;68815;48.810;44.482;2023-12-28T11:27:35;3;;;1.1;;
79346;SDS011;68815;48.810;44.482;2023-12-28T11:30:37;2.7;;;0.9;;
79346;SDS011;68815;48.810;44.482;2023-12-28T11:33:43;3.1;;;0.9;;
79346;SDS011;68815;48.810;44.482;2023-12-28T11:36:46;3.7;;;1;;
79346;SDS011;68815;48.810;44.482;2023-12-28T11:39:51;2.7;;;0.9;;
79346;SDS011;68815;48.810;44.482;2023-12-28T11:42:54;3;;;0.8;;
79346;SDS011;68815;48.810;44.482;2023-12-28T11:45:56;2.9;;;0.8;;
79346;SDS011;68815;48.810;44.482;2023-12-28T11:49:05;2.6;;;0.9;;
79346;SDS011;68815;48.810;44.482;2023-12-28T11:52:09;2.5;;;0.8;;
79346;SDS011;68815;48.810;44.482;2023-12-28T11:55:11;2.8;;;1.1;;
79346;SDS011;68815;48.810;44.482;2023-12-28T11:58:22;2.2;;;0.8;;
79346;SDS011;68815;48.810;44.482;2023-12-28T12:01:24;3.3;;;1;;
79346;SDS011;68815;48.810;44.482;2023-12-28T12:04:26;2.7;;;1;;
79346;SDS011;68815;48.810;44.482;2023-12-28T12:07:28;2.6;;;1;;
79346;SDS011;68815;48.810;44.482;2023-12-28T12:10:30;2.5;;;1;;
79346;SDS011;68815;48.810;44.482;2023-12-28T12:13:31;2.5;;;0.9;;
79346;SDS011;68815;48.810;44.482;2023-12-28T12:16:34;3;;;0.8;;
79346;SDS011;68815;48.810;44.482;2023-12-28T12:19:36;2.4;;;0.8;;
79346;SDS011;68815;48.810;44.482;2023-12-28T12:22:38;2.6;;;0.9;;
79346;SDS011;68815;48.810;44.482;2023-12-28T12:25:41;3.2;;;0.9;;
79346;SDS011;68815;48.810;44.482;2023-12-28T12:28:43;3.7;;;1.1;;
79346;SDS011;68815;48.810;44.482;2023-12-28T12:31:45;2.5;;;1;;
79346;SDS011;68815;48.810;44.482;2023-12-28T12:34:49;3;;;1;;
79346;SDS011;68815;48.810;44.482;2023-12-28T12:37:53;3.5;;;1.1;;
79346;SDS011;68815;48.810;44.482;2023-12-28T12:40:54;3.7;;;1;;
79346;SDS011;68815;48.810;44.482;2023-12-28T12:43:56;2.6;;;0.8;;
79346;SDS011;68815;48.810;44.482;2023-12-28T12:46:59;3.4;;;0.9;;
79346;SDS011;68815;48.810;44.482;2023-12-28T12:50:01;2.8;;;1;;
79346;SDS011;68815;48.810;44.482;2023-12-28T12:53:06;3.1;;;1.1;;
79346;SDS011;68815;48.810;44.482;2023-12-28T12:56:08;3.1;;;1.1;;
79346;SDS011;68815;48.810;44.482;2023-12-28T12:59:11;3;;;1.1;;
79346;SDS011;68815;48.810;44.482;2023-12-28T13:02:13;4.2;;;1.1;;
79346;SDS011;68815;48.810;44.482;2023-12-28T13:05:15;3.4;;;1.2;;
79346;SDS011;68815;48.810;44.482;2023-12-28T13:08:17;3.7;;;1.3;;
79346;SDS011;68815;48.810;44.482;2023-12-28T13:11:18;2.9;;;1.2;;
79346;SDS011;68815;48.810;44.482;2023-12-28T13:14:20;3.8;;;1.5;;
79346;SDS011;68815;48.810;44.482;2023-12-28T13:17:23;6.2;;;1.5;;
79346;SDS011;68815;48.810;44.482;2023-12-28T13:20:25;3.6;;;1.1;;
79346;SDS011;68815;48.810;44.482;2023-12-28T13:23:27;4.7;;;1.5;;
79346;SDS011;68815;48.810;44.482;2023-12-28T13:26:29;3.9;;;1.3;;
79346;SDS011;68815;48.810;44.482;2023-12-28T13:29:30;3.6;;;1.1;;
79346;SDS011;68815;48.810;44.482;2023-12-28T13:32:32;2.5;;;1;;
79346;SDS011;68815;48.810;44.482;2023-12-28T13:35:34;7;;;1.4;;
79346;SDS011;68815;48.810;44.482;2023-12-28T13:38:36;4.1;;;1.1;;
79346;SDS011;68815;48.810;44.482;2023-12-28T13:41:38;3;;;1.1;;
79346;SDS011;68815;48.810;44.482;2023-12-28T13:44:40;3;;;1.2;;
79346;SDS011;68815;48.810;44.482;2023-12-28T13:47:42;3.1;;;1.1;;
79346;SDS011;68815;48.810;44.482;2023-12-28T13:50:44;4.2;;;1.4;;
79346;SDS011;68815;48.810;44.482;2023-12-28T13:53:45;4.1;;;1.2;;
79346;SDS011;68815;48.810;44.482;2023-12-28T13:56:47;3.2;;;1;;
79346;SDS011;68815;48.810;44.482;2023-12-28T13:59:50;2.9;;;1;;
79346;SDS011;68815;48.810;44.482;2023-12-28T14:02:52;2.8;;;1;;
79346;SDS011;68815;48.810;44.482;2023-12-28T14:05:54;5;;;1.3;;
79346;SDS011;68815;48.810;44.482;2023-12-28T14:08:56;3.1;;;1.2;;
79346;SDS011;68815;48.810;44.482;2023-12-28T14:11:58;2.8;;;1;;
79346;SDS011;68815;48.810;44.482;2023-12-28T14:15:00;3.4;;;1.1;;
79346;SDS011;68815;48.810;44.482;2023-12-28T14:18:02;3.6;;;1.1;;
79346;SDS011;68815;48.810;44.482;2023-12-28T14:21:04;3.3;;;1.4;;
79346;SDS011;68815;48.810;44.482;2023-12-28T14:24:06;2.9;;;1.1;;
79346;SDS011;68815;48.810;44.482;2023-12-28T14:27:09;4.1;;;1.4;;
79346;SDS011;68815;48.810;44.482;2023-12-28T14:30:11;3.1;;;1.2;;
79346;SDS011;68815;48.810;44.482;2023-12-28T14:33:13;3.4;;;1.3;;
79346;SDS011;68815;48.810;44.482;2023-12-28T14:36:17;3.9;;;1.5;;
79346;SDS011;68815;48.810;44.482;2023-12-28T14:39:28;3.1;;;1.2;;
79346;SDS011;68815;48.810;44.482;2023-12-28T14:42:30;3.7;;;1.3;;
79346;SDS011;68815;48.810;44.482;2023-12-28T14:45:31;2.8;;;1.1;;
79346;SDS011;68815;48.810;44.482;2023-12-28T14:48:34;3.5;;;1.4;;
79346;SDS011;68815;48.810;44.482;2023-12-28T14:51:36;4.1;;;1.4;;
79346;SDS011;68815;48.810;44.482;2023-12-28T14:54:38;3.5;;;1.5;;
79346;SDS011;68815;48.810;44.482;2023-12-28T14:57:39;3.3;;;1.4;;
79346;SDS011;68815;48.810;44.482;2023-12-28T15:00:41;3.3;;;1.3;;
79346;SDS011;68815;48.810;44.482;2023-12-28T15:03:45;3;;;1.4;;
79346;SDS011;68815;48.810;44.482;2023-12-28T15:06:47;2.8;;;1.1;;
79346;SDS011;68815;48.810;44.482;2023-12-28T15:09:49;3.2;;;1.4;;
79346;SDS011;68815;48.810;44.482;2023-12-28T15:12:51;3.9;;;1.4;;
79346;SDS011;68815;48.810;44.482;2023-12-28T15:15:53;3;;;1.4;;
79346;SDS011;68815;48.810;44.482;2023-12-28T15:18:56;2.9;;;1.1;;
79346;SDS011;68815;48.810;44.482;2023-12-28T15:21:58;2.7;;;1.1;;
79346;SDS011;68815;48.810;44.482;2023-12-28T15:25:00;3.3;;;1.3;;
79346;SDS011;68815;48.810;44.482;2023-12-28T15:28:02;2.7;;;1;;
79346;SDS011;68815;48.810;44.482;2023-12-28T15:31:04;2.5;;;0.8;;
79346;SDS011;68815;48.810;44.482;2023-12-28T15:34:06;2.4;;;0.9;;
79346;SDS011;68815;48.810;44.482;2023-12-28T15:37:08;2.5;;;0.9;;
79346;SDS011;68815;48.810;44.482;2023-12-28T15:40:15;2.7;;;0.9;;
79346;SDS011;68815;48.810;44.482;2023-12-28T15:43:18;3.5;;;1;;
79346;SDS011;68815;48.810;44.482;2023-12-28T15:46:20;2.7;;;1;;
79346;SDS011;68815;48.810;44.482;2023-12-28T15:49:22;3.1;;;1.2;;
79346;SDS011;68815;48.810;44.482;2023-12-28T15:52:24;2.3;;;0.9;;
79346;SDS011;68815;48.810;44.482;2023-12-28T15:55:25;2.6;;;1;;
79346;SDS011;68815;48.810;44.482;2023-12-28T15:58:27;2.7;;;1;;
79346;SDS011;68815;48.810;44.482;2023-12-28T16:01:29;3;;;1;;
79346;SDS011;68815;48.810;44.482;2023-12-28T16:04:31;4.3;;;1.2;;
79346;SDS011;68815;48.810;44.482;2023-12-28T16:07:33;2.6;;;1;;
79346;SDS011;68815;48.810;44.482;2023-12-28T16:10:35;3.2;;;1.1;;
79346;SDS011;68815;48.810;44.482;2023-12-28T16:13:37;2.7;;;1;;
79346;SDS011;68815;48.810;44.482;2023-12-28T16:16:39;3.2;;;1;;
79346;SDS011;68815;48.810;44.482;2023-12-28T16:19:43;2.8;;;1.1;;
79346;SDS011;68815;48.810;44.482;2023-12-28T16:22:45;2.8;;;1.1;;
79346;SDS011;68815;48.810;44.482;2023-12-28T16:25:47;2.7;;;0.9;;
79346;SDS011;68815;48.810;44.482;2023-12-28T16:28:49;4;;;1.2;;
79346;SDS011;68815;48.810;44.482;2023-12-28T16:31:51;2.5;;;1.1;;
79346;SDS011;68815;48.810;44.482;2023-12-28T16:34:53;3.3;;;1.1;;
79346;SDS011;68815;48.810;44.482;2023-12-28T16:37:55;3.2;;;1.1;;
79346;SDS011;68815;48.810;44.482;2023-12-28T16:40:57;4.1;;;1.3;;
79346;SDS011;68815;48.810;44.482;2023-12-28T16:44:00;2.9;;;1.1;;
79346;SDS011;68815;48.810;44.482;2023-12-28T16:47:02;3.3;;;1;;
79346;SDS011;68815;48.810;44.482;2023-12-28T16:50:04;2.8;;;1;;
79346;SDS011;68815;48.810;44.482;2023-12-28T16:53:06;2.8;;;1.1;;
79346;SDS011;68815;48.810;44.482;2023-12-28T16:56:08;2.9;;;0.9;;
79346;SDS011;68815;48.810;44.482;2023-12-28T16:59:10;3.4;;;1.1;;
79346;SDS011;68815;48.810;44.482;2023-12-28T17:02:12;2.7;;;1.1;;
79346;SDS011;68815;48.810;44.482;2023-12-28T17:05:15;2.5;;;0.9;;
79346;SDS011;68815;48.810;44.482;2023-12-28T17:08:17;2.9;;;1.1;;
79346;SDS011;68815;48.810;44.482;2023-12-28T17:11:19;2.9;;;1.1;;
79346;SDS011;68815;48.810;44.482;2023-12-28T17:14:22;2.8;;;1;;
79346;SDS011;68815;48.810;44.482;2023-12-28T17:17:24;2.7;;;0.9;;
79346;SDS011;68815;48.810;44.482;2023-12-28T17:20:26;2.8;;;1.1;;
79346;SDS011;68815;48.810;44.482;2023-12-28T17:23:31;3;;;1.3;;
79346;SDS011;68815;48.810;44.482;2023-12-28T17:26:38;4.2;;;1.5;;
79346;SDS011;68815;48.810;44.482;2023-12-28T17:29:48;2.9;;;1.2;;
79346;SDS011;68815;48.810;44.482;2023-12-28T17:32:52;2.6;;;1;;
79346;SDS011;68815;48.810;44.482;2023-12-28T17:35:55;3;;;1;;
79346;SDS011;68815;48.810;44.482;2023-12-28T17:38:58;3.1;;;0.9;;
79346;SDS011;68815;48.810;44.482;2023-12-28T17:42:00;2.3;;;0.8;;
79346;SDS011;68815;48.810;44.482;2023-12-28T17:45:02;2.8;;;1;;
79346;SDS011;68815;48.810;44.482;2023-12-28T17:48:07;2.9;;;1;;
79346;SDS011;68815;48.810;44.482;2023-12-28T17:51:09;2.6;;;1;;
79346;SDS011;68815;48.810;44.482;2023-12-28T17:54:13;3.2;;;0.9;;
79346;SDS011;68815;48.810;44.482;2023-12-28T17:57:15;2.6;;;1;;
79346;SDS011;68815;48.810;44.482;2023-12-28T18:00:17;2.6;;;1.1;;
79346;SDS011;68815;48.810;44.482;2023-12-28T18:03:19;3.2;;;1.2;;
79346;SDS011;68815;48.810;44.482;2023-12-28T18:06:21;3.2;;;1.2;;
79346;SDS011;68815;48.810;44.482;2023-12-28T18:09:23;2.6;;;1;;
79346;SDS011;68815;48.810;44.482;2023-12-28T18:12:25;3.1;;;1.2;;
79346;SDS011;68815;48.810;44.482;2023-12-28T18:15:27;2.8;;;1.1;;
79346;SDS011;68815;48.810;44.482;2023-12-28T18:18:30;3.3;;;1.2;;
79346;SDS011;68815;48.810;44.482;2023-12-28T18:21:32;2.6;;;1;;
79346;SDS011;68815;48.810;44.482;2023-12-28T18:24:33;2.6;;;1;;
79346;SDS011;68815;48.810;44.482;2023-12-28T18:27:35;3.9;;;1.1;;
79346;SDS011;68815;48.810;44.482;2023-12-28T18:30:38;2.9;;;1;;
79346;SDS011;68815;48.810;44.482;2023-12-28T18:33:40;2.5;;;0.9;;
79346;SDS011;68815;48.810;44.482;2023-12-28T18:36:42;3;;;1;;
79346;SDS011;68815;48.810;44.482;2023-12-28T18:39:44;2.6;;;1;;
79346;SDS011;68815;48.810;44.482;2023-12-28T18:42:46;3.1;;;1;;
79346;SDS011;68815;48.810;44.482;2023-12-28T18:45:48;3.2;;;1.1;;
79346;SDS011;68815;48.810;44.482;2023-12-28T18:48:50;2.7;;;1.1;;